sensor_id;sensor_type;location;lat;lon;timestamp;pressure;altitude;pressure_sealevel;temperature;humidity
50282;BME280;36176;51.506;10.272;2023-04-26T00:01:57;99499.53;;;2.38;87.89
50282;BME280;36176;51.506;10.272;2023-04-26T00:04:24;99510.09;;;2.29;88.01
50282;BME280;36176;51.506;10.272;2023-04-26T00:06:52;99516.28;;;2.23;88.61
50282;BME280;36176;51.506;10.272;2023-04-26T00:09:19;99514.56;;;2.21;88.49
50282;BME280;36176;51.506;10.272;2023-04-26T00:11:46;99514.59;;;2.18;89.21
50282;BME280;36176;51.506;10.272;2023-04-26T00:14:13;99517.25;;;2.15;88.98
50282;BME280;36176;51.506;10.272;2023-04-26T00:16:40;99522.63;;;2.04;89.54
50282;BME280;36176;51.506;10.272;2023-04-26T00:19:07;99518.31;;;1.98;89.35
50282;BME280;36176;51.506;10.272;2023-04-26T00:21:36;99520.13;;;1.93;89.91
50282;BME280;36176;51.506;10.272;2023-04-26T00:24:03;99522.81;;;1.87;89.78
50282;BME280;36176;51.506;10.272;2023-04-26T00:26:33;99522.81;;;1.84;90.06
50282;BME280;36176;51.506;10.272;2023-04-26T00:29:01;99524.63;;;1.79;90.00
50282;BME280;36176;51.506;10.272;2023-04-26T00:31:29;99523.00;;;1.67;90.16
50282;BME280;36176;51.506;10.272;2023-04-26T00:33:56;99530.03;;;1.63;90.45
50282;BME280;36176;51.506;10.272;2023-04-26T00:36:23;99531.84;;;1.55;90.94
50282;BME280;36176;51.506;10.272;2023-04-26T00:38:50;99533.66;;;1.48;91.16
50282;BME280;36176;51.506;10.272;2023-04-26T00:41:18;99531.94;;;1.44;90.99
50282;BME280;36176;51.506;10.272;2023-04-26T00:43:44;99524.97;;;1.43;90.59
50282;BME280;36176;51.506;10.272;2023-04-26T00:46:11;99530.25;;;1.39;90.89
50282;BME280;36176;51.506;10.272;2023-04-26T00:48:39;99532.06;;;1.32;92.09
50282;BME280;36176;51.506;10.272;2023-04-26T00:51:06;99533.00;;;1.23;92.07
50282;BME280;36176;51.506;10.272;2023-04-26T00:53:33;99533.03;;;1.17;92.26
50282;BME280;36176;51.506;10.272;2023-04-26T00:56:01;99532.22;;;1.14;92.19
50282;BME280;36176;51.506;10.272;2023-04-26T00:58:29;99528.75;;;1.12;92.62
50282;BME280;36176;51.506;10.272;2023-04-26T01:00:56;99527.91;;;1.08;93.42
50282;BME280;36176;51.506;10.272;2023-04-26T01:03:23;99527.03;;;1.09;92.52
50282;BME280;36176;51.506;10.272;2023-04-26T01:05:51;99528.84;;;0.98;93.68
50282;BME280;36176;51.506;10.272;2023-04-26T01:08:19;99524.53;;;0.94;93.69
50282;BME280;36176;51.506;10.272;2023-04-26T01:10:47;99522.78;;;0.93;93.43
50282;BME280;36176;51.506;10.272;2023-04-26T01:13:15;99527.19;;;0.88;93.83
50282;BME280;36176;51.506;10.272;2023-04-26T01:15:46;99528.94;;;0.87;93.47
50282;BME280;36176;51.506;10.272;2023-04-26T01:18:14;99530.69;;;0.85;94.43
50282;BME280;36176;51.506;10.272;2023-04-26T01:20:41;99536.78;;;0.84;93.67
50282;BME280;36176;51.506;10.272;2023-04-26T01:23:09;99543.72;;;0.83;94.14
50282;BME280;36176;51.506;10.272;2023-04-26T01:25:37;99536.72;;;0.89;94.47
50282;BME280;36176;51.506;10.272;2023-04-26T01:28:04;99532.34;;;0.95;95.44
50282;BME280;36176;51.506;10.272;2023-04-26T01:30:32;99544.41;;;1.12;95.09
50282;BME280;36176;51.506;10.272;2023-04-26T01:32:59;99539.06;;;1.25;94.46
50282;BME280;36176;51.506;10.272;2023-04-26T01:35:26;99541.56;;;1.38;93.70
50282;BME280;36176;51.506;10.272;2023-04-26T01:37:53;99539.72;;;1.51;93.13
50282;BME280;36176;51.506;10.272;2023-04-26T01:40:20;99544.88;;;1.55;92.12
50282;BME280;36176;51.506;10.272;2023-04-26T01:42:47;99543.13;;;1.57;92.75
50282;BME280;36176;51.506;10.272;2023-04-26T01:45:14;99541.34;;;1.62;91.71
50282;BME280;36176;51.506;10.272;2023-04-26T01:47:41;99543.03;;;1.66;91.39
50282;BME280;36176;51.506;10.272;2023-04-26T01:50:09;99547.38;;;1.67;91.91
50282;BME280;36176;51.506;10.272;2023-04-26T01:52:36;99543.94;;;1.64;91.77
50282;BME280;36176;51.506;10.272;2023-04-26T01:55:03;99551.78;;;1.62;91.07
50282;BME280;36176;51.506;10.272;2023-04-26T01:57:30;99553.53;;;1.60;90.54
50282;BME280;36176;51.506;10.272;2023-04-26T01:59:57;99550.16;;;1.51;90.64
50282;BME280;36176;51.506;10.272;2023-04-26T02:02:25;99545.91;;;1.42;90.99
50282;BME280;36176;51.506;10.272;2023-04-26T02:04:52;99547.72;;;1.32;92.20
50282;BME280;36176;51.506;10.272;2023-04-26T02:07:19;99539.00;;;1.32;92.48
50282;BME280;36176;51.506;10.272;2023-04-26T02:09:46;99545.13;;;1.31;92.77
50282;BME280;36176;51.506;10.272;2023-04-26T02:12:13;99544.22;;;1.32;93.08
50282;BME280;36176;51.506;10.272;2023-04-26T02:14:40;99545.13;;;1.31;92.48
50282;BME280;36176;51.506;10.272;2023-04-26T02:17:07;99538.16;;;1.31;92.65
50282;BME280;36176;51.506;10.272;2023-04-26T02:19:34;99542.53;;;1.27;92.26
50282;BME280;36176;51.506;10.272;2023-04-26T02:22:04;99539.09;;;1.22;92.21
50282;BME280;36176;51.506;10.272;2023-04-26T02:24:32;99540.91;;;1.16;92.01
50282;BME280;36176;51.506;10.272;2023-04-26T02:26:59;99539.19;;;1.12;92.28
50282;BME280;36176;51.506;10.272;2023-04-26T02:29:29;99540.06;;;1.08;92.44
50282;BME280;36176;51.506;10.272;2023-04-26T02:32:11;99542.72;;;1.06;92.94
50282;BME280;36176;51.506;10.272;2023-04-26T02:34:38;99543.59;;;1.00;93.86
50282;BME280;36176;51.506;10.272;2023-04-26T02:37:05;99550.56;;;1.00;93.19
50282;BME280;36176;51.506;10.272;2023-04-26T02:39:33;99546.22;;;1.02;93.06
50282;BME280;36176;51.506;10.272;2023-04-26T02:42:00;99543.59;;;1.02;92.88
50282;BME280;36176;51.506;10.272;2023-04-26T02:44:29;99548.00;;;0.98;92.87
50282;BME280;36176;51.506;10.272;2023-04-26T02:46:56;99544.53;;;0.95;93.23
50282;BME280;36176;51.506;10.272;2023-04-26T02:49:23;99547.13;;;0.95;93.06
50282;BME280;36176;51.506;10.272;2023-04-26T02:51:51;99544.56;;;0.92;92.47
50282;BME280;36176;51.506;10.272;2023-04-26T02:54:18;99537.63;;;0.86;93.01
50282;BME280;36176;51.506;10.272;2023-04-26T02:56:44;99542.00;;;0.81;92.86
50282;BME280;36176;51.506;10.272;2023-04-26T02:59:12;99536.84;;;0.73;92.98
50282;BME280;36176;51.506;10.272;2023-04-26T03:01:39;99542.09;;;0.66;93.23
50282;BME280;36176;51.506;10.272;2023-04-26T03:04:06;99539.53;;;0.59;93.34
50282;BME280;36176;51.506;10.272;2023-04-26T03:06:33;99542.19;;;0.53;93.79
50282;BME280;36176;51.506;10.272;2023-04-26T03:09:01;99541.34;;;0.47;93.79
50282;BME280;36176;51.506;10.272;2023-04-26T03:11:28;99540.50;;;0.40;94.14
50282;BME280;36176;51.506;10.272;2023-04-26T03:13:54;99539.69;;;0.32;95.62
50282;BME280;36176;51.506;10.272;2023-04-26T03:16:22;99541.41;;;0.28;95.80
50282;BME280;36176;51.506;10.272;2023-04-26T03:18:49;99537.97;;;0.28;95.28
50282;BME280;36176;51.506;10.272;2023-04-26T03:21:17;99540.56;;;0.29;95.53
50282;BME280;36176;51.506;10.272;2023-04-26T03:23:44;99540.56;;;0.29;95.51
50282;BME280;36176;51.506;10.272;2023-04-26T03:26:11;99540.59;;;0.25;96.12
50282;BME280;36176;51.506;10.272;2023-04-26T03:28:40;99545.81;;;0.20;96.42
50282;BME280;36176;51.506;10.272;2023-04-26T03:31:07;99543.19;;;0.21;95.73
50282;BME280;36176;51.506;10.272;2023-04-26T03:33:34;99538.84;;;0.20;95.65
50282;BME280;36176;51.506;10.272;2023-04-26T03:36:01;99547.56;;;0.18;96.66
50282;BME280;36176;51.506;10.272;2023-04-26T03:38:28;99546.69;;;0.17;96.55
50282;BME280;36176;51.506;10.272;2023-04-26T03:40:54;99544.94;;;0.18;97.54
50282;BME280;36176;51.506;10.272;2023-04-26T03:43:22;99542.34;;;0.12;97.54
50282;BME280;36176;51.506;10.272;2023-04-26T03:45:49;99543.22;;;0.09;97.58
50282;BME280;36176;51.506;10.272;2023-04-26T03:48:16;99551.91;;;0.13;97.04
50282;BME280;36176;51.506;10.272;2023-04-26T03:50:44;99551.91;;;0.13;96.68
50282;BME280;36176;51.506;10.272;2023-04-26T03:53:11;99551.06;;;0.08;97.34
50282;BME280;36176;51.506;10.272;2023-04-26T03:55:38;99551.97;;;0.05;97.32
50282;BME280;36176;51.506;10.272;2023-04-26T03:58:05;99550.22;;;0.06;96.46
50282;BME280;36176;51.506;10.272;2023-04-26T04:00:36;99554.56;;;0.01;96.49
50282;BME280;36176;51.506;10.272;2023-04-26T04:03:04;99556.31;;;-0.02;97.04
50282;BME280;36176;51.506;10.272;2023-04-26T04:05:31;99542.41;;;-0.04;96.61
50282;BME280;36176;51.506;10.272;2023-04-26T04:07:58;99555.44;;;-0.02;96.20
50282;BME280;36176;51.506;10.272;2023-04-26T04:10:25;99550.22;;;-0.05;96.36
50282;BME280;36176;51.506;10.272;2023-04-26T04:12:52;99552.84;;;-0.07;95.95
50282;BME280;36176;51.506;10.272;2023-04-26T04:15:20;99551.13;;;-0.05;96.21
50282;BME280;36176;51.506;10.272;2023-04-26T04:17:47;99556.31;;;-0.03;95.99
50282;BME280;36176;51.506;10.272;2023-04-26T04:20:14;99556.31;;;-0.02;96.95
50282;BME280;36176;51.506;10.272;2023-04-26T04:22:41;99551.94;;;0.04;97.21
50282;BME280;36176;51.506;10.272;2023-04-26T04:25:08;99561.50;;;0.08;96.16
50282;BME280;36176;51.506;10.272;2023-04-26T04:27:40;99558.88;;;0.11;96.52
50282;BME280;36176;51.506;10.272;2023-04-26T04:30:08;99564.91;;;0.19;97.07
50282;BME280;36176;51.506;10.272;2023-04-26T04:32:35;99560.53;;;0.26;96.49
50282;BME280;36176;51.506;10.272;2023-04-26T04:35:05;99573.56;;;0.36;95.96
50282;BME280;36176;51.506;10.272;2023-04-26T04:37:32;99565.66;;;0.47;95.69
50282;BME280;36176;51.506;10.272;2023-04-26T04:40:00;99567.34;;;0.59;94.89
50282;BME280;36176;51.506;10.272;2023-04-26T04:42:27;99570.69;;;0.81;94.03
50282;BME280;36176;51.506;10.272;2023-04-26T04:44:54;99568.91;;;0.89;93.78
50282;BME280;36176;51.506;10.272;2023-04-26T04:47:22;99572.34;;;0.97;93.63
50282;BME280;36176;51.506;10.272;2023-04-26T04:49:50;99570.50;;;1.12;92.71
50282;BME280;36176;51.506;10.272;2023-04-26T04:52:18;99578.19;;;1.28;91.82
50282;BME280;36176;51.506;10.272;2023-04-26T04:54:47;99577.13;;;1.56;91.56
50282;BME280;36176;51.506;10.272;2023-04-26T04:57:14;99575.78;;;2.01;90.38
50282;BME280;36176;51.506;10.272;2023-04-26T04:59:42;99577.59;;;2.67;88.84
50282;BME280;36176;51.506;10.272;2023-04-26T05:02:09;99574.16;;;3.23;87.07
50282;BME280;36176;51.506;10.272;2023-04-26T05:04:36;99581.88;;;3.83;85.50
50282;BME280;36176;51.506;10.272;2023-04-26T05:07:04;99580.94;;;4.34;83.28
50282;BME280;36176;51.506;10.272;2023-04-26T05:09:32;99584.19;;;4.45;81.10
50282;BME280;36176;51.506;10.272;2023-04-26T05:11:59;99588.56;;;4.46;80.70
50282;BME280;36176;51.506;10.272;2023-04-26T05:14:28;99586.25;;;5.11;79.40
50282;BME280;36176;51.506;10.272;2023-04-26T05:16:55;99596.03;;;5.78;78.35
50282;BME280;36176;51.506;10.272;2023-04-26T05:19:23;99592.03;;;5.97;76.52
50282;BME280;36176;51.506;10.272;2023-04-26T05:21:51;99592.47;;;6.46;75.09
50282;BME280;36176;51.506;10.272;2023-04-26T05:24:18;99588.88;;;7.08;72.99
50282;BME280;36176;51.506;10.272;2023-04-26T05:26:45;99589.44;;;7.73;71.80
50282;BME280;36176;51.506;10.272;2023-04-26T05:29:15;99597.09;;;8.30;68.20
50282;BME280;36176;51.506;10.272;2023-04-26T05:31:42;99605.09;;;8.78;67.64
50282;BME280;36176;51.506;10.272;2023-04-26T05:34:09;99593.16;;;9.13;64.94
50282;BME280;36176;51.506;10.272;2023-04-26T05:36:36;99596.44;;;9.42;63.74
50282;BME280;36176;51.506;10.272;2023-04-26T05:39:03;99605.50;;;9.78;62.36
50282;BME280;36176;51.506;10.272;2023-04-26T05:41:31;99609.75;;;10.23;61.43
50282;BME280;36176;51.506;10.272;2023-04-26T05:43:58;99607.06;;;10.85;60.45
50282;BME280;36176;51.506;10.272;2023-04-26T05:46:25;99608.00;;;11.39;57.11
50282;BME280;36176;51.506;10.272;2023-04-26T05:48:52;99614.03;;;11.79;56.32
50282;BME280;36176;51.506;10.272;2023-04-26T05:51:20;99616.50;;;12.19;54.12
50282;BME280;36176;51.506;10.272;2023-04-26T05:53:50;99613.09;;;12.50;53.27
50282;BME280;36176;51.506;10.272;2023-04-26T05:56:26;99612.59;;;13.08;52.89
50282;BME280;36176;51.506;10.272;2023-04-26T05:58:53;99621.38;;;13.42;51.36
50282;BME280;36176;51.506;10.272;2023-04-26T06:01:20;99611.69;;;13.41;48.43
50282;BME280;36176;51.506;10.272;2023-04-26T06:03:47;99617.59;;;13.62;49.56
50282;BME280;36176;51.506;10.272;2023-04-26T06:06:15;99618.09;;;14.29;48.64
50282;BME280;36176;51.506;10.272;2023-04-26T06:08:42;99615.91;;;14.66;45.18
50282;BME280;36176;51.506;10.272;2023-04-26T06:11:17;99613.44;;;14.77;44.78
50282;BME280;36176;51.506;10.272;2023-04-26T06:13:44;99623.19;;;15.20;45.55
50282;BME280;36176;51.506;10.272;2023-04-26T06:16:12;99612.94;;;15.41;42.84
50282;BME280;36176;51.506;10.272;2023-04-26T06:18:39;99613.97;;;15.52;43.15
50282;BME280;36176;51.506;10.272;2023-04-26T06:21:06;99617.59;;;15.51;42.56
50282;BME280;36176;51.506;10.272;2023-04-26T06:23:33;99612.22;;;15.66;42.32
50282;BME280;36176;51.506;10.272;2023-04-26T06:26:00;99612.59;;;15.87;41.56
50282;BME280;36176;51.506;10.272;2023-04-26T06:28:27;99613.16;;;15.92;40.59
50282;BME280;36176;51.506;10.272;2023-04-26T06:30:57;99616.78;;;16.31;39.82
50282;BME280;36176;51.506;10.272;2023-04-26T06:33:26;99618.28;;;16.61;39.76
50282;BME280;36176;51.506;10.272;2023-04-26T06:35:53;99621.31;;;16.82;39.94
50282;BME280;36176;51.506;10.272;2023-04-26T06:38:24;99625.88;;;16.67;37.08
50282;BME280;36176;51.506;10.272;2023-04-26T06:40:50;99629.50;;;16.66;38.26
50282;BME280;36176;51.506;10.272;2023-04-26T06:43:17;99625.06;;;16.79;39.67
50282;BME280;36176;51.506;10.272;2023-04-26T06:45:44;99627.53;;;17.19;38.83
50282;BME280;36176;51.506;10.272;2023-04-26T06:48:11;99619.22;;;15.81;38.88
50282;BME280;36176;51.506;10.272;2023-04-26T06:50:38;99633.59;;;14.67;41.32
50282;BME280;36176;51.506;10.272;2023-04-26T06:53:06;99629.13;;;14.82;41.40
50282;BME280;36176;51.506;10.272;2023-04-26T06:55:33;99623.66;;;13.80;42.59
50282;BME280;36176;51.506;10.272;2023-04-26T06:58:01;99631.53;;;13.02;44.66
50282;BME280;36176;51.506;10.272;2023-04-26T07:00:28;99635.84;;;13.05;44.01
50282;BME280;36176;51.506;10.272;2023-04-26T07:02:55;99625.41;;;12.00;44.52
50282;BME280;36176;51.506;10.272;2023-04-26T07:05:23;99631.69;;;11.25;47.97
50282;BME280;36176;51.506;10.272;2023-04-26T07:07:50;99638.50;;;10.53;49.91
50282;BME280;36176;51.506;10.272;2023-04-26T07:10:17;99634.97;;;10.12;52.03
50282;BME280;36176;51.506;10.272;2023-04-26T07:12:44;99627.97;;;10.91;51.15
50282;BME280;36176;51.506;10.272;2023-04-26T07:15:11;99647.84;;;11.01;50.32
50282;BME280;36176;51.506;10.272;2023-04-26T07:17:38;99638.41;;;10.75;50.43
50282;BME280;36176;51.506;10.272;2023-04-26T07:20:06;99646.72;;;10.47;50.32
50282;BME280;36176;51.506;10.272;2023-04-26T07:22:33;99642.19;;;10.08;51.48
50282;BME280;36176;51.506;10.272;2023-04-26T07:25:00;99645.22;;;9.99;52.76
50282;BME280;36176;51.506;10.272;2023-04-26T07:27:27;99642.16;;;10.30;52.12
50282;BME280;36176;51.506;10.272;2023-04-26T07:29:54;99645.72;;;10.29;52.80
50282;BME280;36176;51.506;10.272;2023-04-26T07:32:21;99639.44;;;10.32;51.12
50282;BME280;36176;51.506;10.272;2023-04-26T07:34:51;99642.78;;;10.76;51.69
50282;BME280;36176;51.506;10.272;2023-04-26T07:37:19;99637.72;;;10.91;50.35
50282;BME280;36176;51.506;10.272;2023-04-26T07:39:46;99648.31;;;10.31;51.07
50282;BME280;36176;51.506;10.272;2023-04-26T07:42:13;99645.66;;;10.31;48.69
50282;BME280;36176;51.506;10.272;2023-04-26T07:44:41;99645.63;;;10.72;49.20
50282;BME280;36176;51.506;10.272;2023-04-26T07:47:11;99644.97;;;10.67;48.66
50282;BME280;36176;51.506;10.272;2023-04-26T07:49:39;99643.88;;;9.89;48.39
50282;BME280;36176;51.506;10.272;2023-04-26T07:52:08;99644.66;;;9.48;49.83
50282;BME280;36176;51.506;10.272;2023-04-26T07:54:35;99646.81;;;9.61;53.52
50282;BME280;36176;51.506;10.272;2023-04-26T07:57:02;99647.56;;;10.68;48.42
50282;BME280;36176;51.506;10.272;2023-04-26T07:59:30;99645.78;;;10.28;47.70
50282;BME280;36176;51.506;10.272;2023-04-26T08:01:59;99646.63;;;9.65;49.69
50282;BME280;36176;51.506;10.272;2023-04-26T08:04:31;99653.94;;;8.91;50.88
50282;BME280;36176;51.506;10.272;2023-04-26T08:07:02;99654.88;;;8.65;51.34
50282;BME280;36176;51.506;10.272;2023-04-26T08:09:29;99648.94;;;8.58;51.59
50282;BME280;36176;51.506;10.272;2023-04-26T08:11:56;99652.25;;;8.88;51.53
50282;BME280;36176;51.506;10.272;2023-04-26T08:14:24;99649.66;;;11.37;49.10
50282;BME280;36176;51.506;10.272;2023-04-26T08:16:51;99643.94;;;13.82;43.24
50282;BME280;36176;51.506;10.272;2023-04-26T08:19:18;99647.78;;;14.67;40.72
50282;BME280;36176;51.506;10.272;2023-04-26T08:21:46;99646.06;;;13.92;39.92
50282;BME280;36176;51.506;10.272;2023-04-26T08:24:13;99643.44;;;12.79;41.08
50282;BME280;36176;51.506;10.272;2023-04-26T08:26:40;99644.41;;;11.74;42.62
50282;BME280;36176;51.506;10.272;2023-04-26T08:29:07;99642.00;;;10.93;43.78
50282;BME280;36176;51.506;10.272;2023-04-26T08:31:34;99641.81;;;10.58;45.70
50282;BME280;36176;51.506;10.272;2023-04-26T08:34:01;99641.91;;;10.14;45.37
50282;BME280;36176;51.506;10.272;2023-04-26T08:36:28;99640.50;;;9.85;44.95
50282;BME280;36176;51.506;10.272;2023-04-26T08:38:57;99635.44;;;9.36;46.44
50282;BME280;36176;51.506;10.272;2023-04-26T08:41:24;99640.78;;;9.11;47.07
50282;BME280;36176;51.506;10.272;2023-04-26T08:43:53;99642.28;;;8.95;48.19
50282;BME280;36176;51.506;10.272;2023-04-26T08:46:23;99646.63;;;8.74;48.15
50282;BME280;36176;51.506;10.272;2023-04-26T08:49:00;99640.53;;;8.72;50.10
50282;BME280;36176;51.506;10.272;2023-04-26T08:51:32;99646.97;;;8.88;50.11
50282;BME280;36176;51.506;10.272;2023-04-26T08:54:02;99640.31;;;9.24;49.26
50282;BME280;36176;51.506;10.272;2023-04-26T08:56:31;99637.34;;;10.98;46.32
50282;BME280;36176;51.506;10.272;2023-04-26T08:58:58;99630.53;;;12.38;43.87
50282;BME280;36176;51.506;10.272;2023-04-26T09:01:27;99636.09;;;12.16;42.35
50282;BME280;36176;51.506;10.272;2023-04-26T09:03:55;99622.16;;;11.76;42.50
50282;BME280;36176;51.506;10.272;2023-04-26T09:06:23;99629.81;;;10.89;42.82
50282;BME280;36176;51.506;10.272;2023-04-26T09:08:53;99631.03;;;10.82;44.50
50282;BME280;36176;51.506;10.272;2023-04-26T09:11:20;99628.81;;;11.11;43.47
50282;BME280;36176;51.506;10.272;2023-04-26T09:13:48;99638.00;;;11.03;43.30
50282;BME280;36176;51.506;10.272;2023-04-26T09:16:15;99639.28;;;10.76;44.21
50282;BME280;36176;51.506;10.272;2023-04-26T09:18:51;99640.59;;;10.04;44.52
50282;BME280;36176;51.506;10.272;2023-04-26T09:21:19;99637.31;;;9.55;45.56
50282;BME280;36176;51.506;10.272;2023-04-26T09:23:59;99646.22;;;9.08;48.08
50282;BME280;36176;51.506;10.272;2023-04-26T09:26:30;99652.25;;;8.88;47.75
50282;BME280;36176;51.506;10.272;2023-04-26T09:29:17;99646.16;;;8.86;48.37
50282;BME280;36176;51.506;10.272;2023-04-26T09:31:46;99646.03;;;9.13;47.87
50282;BME280;36176;51.506;10.272;2023-04-26T09:34:15;99643.47;;;9.77;48.06
50282;BME280;36176;51.506;10.272;2023-04-26T09:36:53;99640.19;;;10.35;46.91
50282;BME280;36176;51.506;10.272;2023-04-26T09:39:38;99642.72;;;10.78;44.80
50282;BME280;36176;51.506;10.272;2023-04-26T09:42:07;99649.13;;;11.12;45.35
50282;BME280;36176;51.506;10.272;2023-04-26T09:44:34;99643.19;;;11.06;43.72
50282;BME280;36176;51.506;10.272;2023-04-26T09:47:09;99644.47;;;10.77;45.09
50282;BME280;36176;51.506;10.272;2023-04-26T09:49:46;99650.63;;;10.38;45.66
50282;BME280;36176;51.506;10.272;2023-04-26T09:52:15;99650.66;;;10.16;44.97
50282;BME280;36176;51.506;10.272;2023-04-26T09:54:47;99647.88;;;9.99;46.24
50282;BME280;36176;51.506;10.272;2023-04-26T09:57:15;99645.00;;;9.83;46.51
50282;BME280;36176;51.506;10.272;2023-04-26T09:59:49;99635.34;;;9.82;46.50
50282;BME280;36176;51.506;10.272;2023-04-26T10:02:26;99645.34;;;9.96;45.52
50282;BME280;36176;51.506;10.272;2023-04-26T10:04:55;99653.69;;;10.07;46.89
50282;BME280;36176;51.506;10.272;2023-04-26T10:07:24;99650.00;;;10.11;46.10
50282;BME280;36176;51.506;10.272;2023-04-26T10:09:52;99652.69;;;10.32;45.45
50282;BME280;36176;51.506;10.272;2023-04-26T10:12:21;99646.88;;;10.44;44.97
50282;BME280;36176;51.506;10.272;2023-04-26T10:14:48;99643.69;;;10.56;45.63
50282;BME280;36176;51.506;10.272;2023-04-26T10:17:17;99645.72;;;11.27;45.10
50282;BME280;36176;51.506;10.272;2023-04-26T10:19:47;99644.94;;;11.44;42.89
50282;BME280;36176;51.506;10.272;2023-04-26T10:22:22;99647.16;;;11.53;44.17
50282;BME280;36176;51.506;10.272;2023-04-26T10:24:51;99637.38;;;11.54;43.01
50282;BME280;36176;51.506;10.272;2023-04-26T10:30:15;99649.19;;;11.29;41.03
50282;BME280;36176;51.506;10.272;2023-04-26T10:35:26;99650.25;;;11.06;43.98
50282;BME280;36176;51.506;10.272;2023-04-26T10:40:34;99645.38;;;10.78;44.70
50282;BME280;36176;51.506;10.272;2023-04-26T10:45:38;99645.25;;;11.00;44.99
50282;BME280;36176;51.506;10.272;2023-04-26T10:55:56;99642.03;;;12.21;44.12
50282;BME280;36176;51.506;10.272;2023-04-26T10:58:39;99640.47;;;12.17;40.76
50282;BME280;36176;51.506;10.272;2023-04-26T11:01:16;99641.94;;;11.88;42.65
50282;BME280;36176;51.506;10.272;2023-04-26T11:06:24;99635.06;;;11.65;43.90
50282;BME280;36176;51.506;10.272;2023-04-26T11:08:53;99639.41;;;11.48;43.46
50282;BME280;36176;51.506;10.272;2023-04-26T11:11:24;99641.53;;;11.23;44.17
50282;BME280;36176;51.506;10.272;2023-04-26T11:13:52;99636.78;;;11.11;45.38
50282;BME280;36176;51.506;10.272;2023-04-26T11:16:19;99635.72;;;11.15;45.67
50282;BME280;36176;51.506;10.272;2023-04-26T11:18:46;99637.91;;;11.43;44.53
50282;BME280;36176;51.506;10.272;2023-04-26T11:21:13;99633.50;;;11.61;43.68
50282;BME280;36176;51.506;10.272;2023-04-26T11:23:56;99623.47;;;11.48;43.40
50282;BME280;36176;51.506;10.272;2023-04-26T11:26:35;99624.94;;;11.73;42.98
50282;BME280;36176;51.506;10.272;2023-04-26T11:29:02;99626.97;;;12.04;42.24
50282;BME280;36176;51.506;10.272;2023-04-26T11:31:30;99616.88;;;12.28;42.69
50282;BME280;36176;51.506;10.272;2023-04-26T11:34:03;99613.59;;;12.56;42.02
50282;BME280;36176;51.506;10.272;2023-04-26T11:36:30;99622.41;;;12.74;40.48
50282;BME280;36176;51.506;10.272;2023-04-26T11:38:58;99616.91;;;13.58;42.26
50282;BME280;36176;51.506;10.272;2023-04-26T11:41:28;99615.06;;;14.35;39.21
50282;BME280;36176;51.506;10.272;2023-04-26T11:43:58;99610.69;;;14.34;38.17
50282;BME280;36176;51.506;10.272;2023-04-26T11:46:31;99616.06;;;13.88;38.09
50282;BME280;36176;51.506;10.272;2023-04-26T11:48:58;99623.25;;;13.24;38.40
50282;BME280;36176;51.506;10.272;2023-04-26T11:51:25;99612.56;;;12.76;39.28
50282;BME280;36176;51.506;10.272;2023-04-26T11:53:52;99618.13;;;12.21;39.31
50282;BME280;36176;51.506;10.272;2023-04-26T11:56:20;99610.28;;;11.83;40.74
50282;BME280;36176;51.506;10.272;2023-04-26T11:58:50;99612.66;;;11.70;41.16
50282;BME280;36176;51.506;10.272;2023-04-26T12:01:27;99616.53;;;11.46;41.68
50282;BME280;36176;51.506;10.272;2023-04-26T12:03:56;99614.25;;;11.38;41.95
50282;BME280;36176;51.506;10.272;2023-04-26T12:06:45;99622.22;;;11.38;40.92
50282;BME280;36176;51.506;10.272;2023-04-26T12:09:12;99630.53;;;11.49;41.43
50282;BME280;36176;51.506;10.272;2023-04-26T12:11:39;99622.16;;;11.76;41.83
50282;BME280;36176;51.506;10.272;2023-04-26T12:14:06;99620.16;;;11.62;41.63
50282;BME280;36176;51.506;10.272;2023-04-26T12:16:35;99628.28;;;11.23;40.55
50282;BME280;36176;51.506;10.272;2023-04-26T12:19:04;99624.81;;;11.02;40.96
50282;BME280;36176;51.506;10.272;2023-04-26T12:21:42;99626.50;;;10.84;42.83
50282;BME280;36176;51.506;10.272;2023-04-26T12:24:21;99622.38;;;10.97;41.97
50282;BME280;36176;51.506;10.272;2023-04-26T12:26:48;99620.09;;;11.09;41.99
50282;BME280;36176;51.506;10.272;2023-04-26T12:29:15;99621.75;;;11.11;41.18
50282;BME280;36176;51.506;10.272;2023-04-26T12:31:42;99618.16;;;11.12;41.19
50282;BME280;36176;51.506;10.272;2023-04-26T12:34:09;99619.22;;;10.89;41.21
50282;BME280;36176;51.506;10.272;2023-04-26T12:36:39;99617.88;;;10.60;41.38
50282;BME280;36176;51.506;10.272;2023-04-26T12:39:08;99623.69;;;10.49;42.84
50282;BME280;36176;51.506;10.272;2023-04-26T12:41:35;99620.38;;;10.44;41.01
50282;BME280;36176;51.506;10.272;2023-04-26T12:44:02;99614.06;;;10.26;42.59
50282;BME280;36176;51.506;10.272;2023-04-26T12:46:29;99633.06;;;10.15;41.77
50282;BME280;36176;51.506;10.272;2023-04-26T12:48:57;99630.81;;;10.06;41.85
50282;BME280;36176;51.506;10.272;2023-04-26T12:51:24;99623.19;;;10.19;41.95
50282;BME280;36176;51.506;10.272;2023-04-26T12:53:51;99626.59;;;10.22;41.43
50282;BME280;36176;51.506;10.272;2023-04-26T12:56:18;99630.78;;;10.27;41.17
50282;BME280;36176;51.506;10.272;2023-04-26T12:58:47;99623.53;;;10.32;42.46
50282;BME280;36176;51.506;10.272;2023-04-26T13:01:14;99627.78;;;10.36;42.71
50282;BME280;36176;51.506;10.272;2023-04-26T13:03:41;99634.34;;;10.27;42.54
50282;BME280;36176;51.506;10.272;2023-04-26T13:06:09;99636.63;;;10.14;42.39
50282;BME280;36176;51.506;10.272;2023-04-26T13:08:36;99638.00;;;10.02;42.66
50282;BME280;36176;51.506;10.272;2023-04-26T13:11:03;99637.53;;;9.93;43.31
50282;BME280;36176;51.506;10.272;2023-04-26T13:13:30;99632.09;;;9.96;43.00
50282;BME280;36176;51.506;10.272;2023-04-26T13:16:09;99633.31;;;10.09;43.91
50282;BME280;36176;51.506;10.272;2023-04-26T13:18:36;99626.78;;;10.38;42.92
50282;BME280;36176;51.506;10.272;2023-04-26T13:21:03;99630.06;;;10.64;42.09
50282;BME280;36176;51.506;10.272;2023-04-26T13:23:30;99630.97;;;11.02;41.60